sensor_id;sensor_type;location;lat;lon;timestamp;P1;durP1;ratioP1;P2;durP2;ratioP2
21254;SDS011;10785;50.674;17.954;2023-05-10T00:00:16;44.17;;;29.52;;
21254;SDS011;10785;50.674;17.954;2023-05-10T00:02:45;15.57;;;12.05;;
21254;SDS011;10785;50.674;17.954;2023-05-10T00:05:14;21.35;;;14.25;;
21254;SDS011;10785;50.674;17.954;2023-05-10T00:07:45;16.75;;;10.10;;
21254;SDS011;10785;50.674;17.954;2023-05-10T00:10:13;15.70;;;13.90;;
21254;SDS011;10785;50.674;17.954;2023-05-10T00:12:42;10.98;;;9.75;;
21254;SDS011;10785;50.674;17.954;2023-05-10T00:15:11;29.20;;;10.50;;
21254;SDS011;10785;50.674;17.954;2023-05-10T00:17:40;24.05;;;11.88;;
21254;SDS011;10785;50.674;17.954;2023-05-10T00:20:09;57.88;;;23.27;;
21254;SDS011;10785;50.674;17.954;2023-05-10T00:22:38;63.78;;;29.00;;
21254;SDS011;10785;50.674;17.954;2023-05-10T00:25:09;43.85;;;26.88;;
21254;SDS011;10785;50.674;17.954;2023-05-10T00:27:38;65.90;;;31.33;;
21254;SDS011;10785;50.674;17.954;2023-05-10T00:30:07;69.97;;;40.58;;
21254;SDS011;10785;50.674;17.954;2023-05-10T00:32:36;83.15;;;43.72;;
21254;SDS011;10785;50.674;17.954;2023-05-10T00:35:05;94.35;;;46.88;;
21254;SDS011;10785;50.674;17.954;2023-05-10T00:37:34;99.28;;;44.97;;
21254;SDS011;10785;50.674;17.954;2023-05-10T00:40:03;44.83;;;18.75;;
21254;SDS011;10785;50.674;17.954;2023-05-10T00:42:34;45.05;;;17.92;;
21254;SDS011;10785;50.674;17.954;2023-05-10T00:45:03;17.27;;;10.77;;
21254;SDS011;10785;50.674;17.954;2023-05-10T00:47:32;14.57;;;8.45;;
21254;SDS011;10785;50.674;17.954;2023-05-10T00:50:02;8.07;;;7.35;;
21254;SDS011;10785;50.674;17.954;2023-05-10T00:52:31;15.20;;;7.93;;
21254;SDS011;10785;50.674;17.954;2023-05-10T00:55:00;20.98;;;10.75;;
21254;SDS011;10785;50.674;17.954;2023-05-10T00:57:31;13.00;;;9.05;;
21254;SDS011;10785;50.674;17.954;2023-05-10T01:00:01;5.22;;;3.65;;
21254;SDS011;10785;50.674;17.954;2023-05-10T01:02:32;5.20;;;3.33;;
21254;SDS011;10785;50.674;17.954;2023-05-10T01:05:02;1.02;;;1.00;;
21254;SDS011;10785;50.674;17.954;2023-05-10T01:07:32;2.28;;;2.17;;
21254;SDS011;10785;50.674;17.954;2023-05-10T01:10:00;9.63;;;3.35;;
21254;SDS011;10785;50.674;17.954;2023-05-10T01:12:29;16.35;;;6.03;;
21254;SDS011;10785;50.674;17.954;2023-05-10T01:14:58;2.95;;;2.70;;
21254;SDS011;10785;50.674;17.954;2023-05-10T01:17:31;2.92;;;2.38;;
21254;SDS011;10785;50.674;17.954;2023-05-10T01:20:01;2.22;;;2.00;;
21254;SDS011;10785;50.674;17.954;2023-05-10T01:22:43;8.05;;;2.35;;
21254;SDS011;10785;50.674;17.954;2023-05-10T01:25:34;1.20;;;1.20;;
21254;SDS011;10785;50.674;17.954;2023-05-10T02:56:09;1.92;;;1.83;;
21254;SDS011;10785;50.674;17.954;2023-05-10T02:58:42;1.73;;;1.67;;
21254;SDS011;10785;50.674;17.954;2023-05-10T03:01:10;1.48;;;1.38;;
21254;SDS011;10785;50.674;17.954;2023-05-10T03:03:39;1.45;;;1.35;;
21254;SDS011;10785;50.674;17.954;2023-05-10T03:06:08;3.10;;;2.40;;
21254;SDS011;10785;50.674;17.954;2023-05-10T03:08:37;1.75;;;1.65;;
21254;SDS011;10785;50.674;17.954;2023-05-10T03:11:16;1.83;;;1.73;;
21254;SDS011;10785;50.674;17.954;2023-05-10T03:14:07;2.33;;;2.17;;
21254;SDS011;10785;50.674;17.954;2023-05-10T03:16:41;3.28;;;1.70;;
21254;SDS011;10785;50.674;17.954;2023-05-10T03:19:16;3.40;;;2.28;;
21254;SDS011;10785;50.674;17.954;2023-05-10T03:21:51;2.97;;;2.40;;
21254;SDS011;10785;50.674;17.954;2023-05-10T03:24:21;3.53;;;2.67;;
21254;SDS011;10785;50.674;17.954;2023-05-10T03:26:55;2.53;;;2.17;;
21254;SDS011;10785;50.674;17.954;2023-05-10T03:29:29;2.30;;;1.67;;
21254;SDS011;10785;50.674;17.954;2023-05-10T03:31:59;2.40;;;2.20;;
21254;SDS011;10785;50.674;17.954;2023-05-10T03:34:30;7.50;;;3.08;;
21254;SDS011;10785;50.674;17.954;2023-05-10T03:36:59;4.22;;;3.65;;
21254;SDS011;10785;50.674;17.954;2023-05-10T03:39:30;1.92;;;1.83;;
21254;SDS011;10785;50.674;17.954;2023-05-10T03:42:02;2.10;;;2.00;;
21254;SDS011;10785;50.674;17.954;2023-05-10T03:44:31;6.28;;;3.15;;
21254;SDS011;10785;50.674;17.954;2023-05-10T03:47:00;3.53;;;1.23;;
21254;SDS011;10785;50.674;17.954;2023-05-10T03:49:29;4.72;;;2.55;;
21254;SDS011;10785;50.674;17.954;2023-05-10T03:51:58;3.22;;;2.80;;
21254;SDS011;10785;50.674;17.954;2023-05-10T03:54:27;4.15;;;3.10;;
21254;SDS011;10785;50.674;17.954;2023-05-10T03:56:55;3.30;;;2.17;;
21254;SDS011;10785;50.674;17.954;2023-05-10T03:59:25;3.00;;;2.72;;
21254;SDS011;10785;50.674;17.954;2023-05-10T04:01:54;4.35;;;2.40;;
21254;SDS011;10785;50.674;17.954;2023-05-10T04:04:23;1.92;;;1.73;;
21254;SDS011;10785;50.674;17.954;2023-05-10T04:06:52;2.97;;;1.98;;
21254;SDS011;10785;50.674;17.954;2023-05-10T04:09:20;1.35;;;1.25;;
21254;SDS011;10785;50.674;17.954;2023-05-10T04:11:49;3.03;;;2.17;;
21254;SDS011;10785;50.674;17.954;2023-05-10T04:14:17;3.88;;;2.72;;
21254;SDS011;10785;50.674;17.954;2023-05-10T04:16:47;3.20;;;2.33;;
21254;SDS011;10785;50.674;17.954;2023-05-10T04:19:16;4.18;;;1.33;;
21254;SDS011;10785;50.674;17.954;2023-05-10T04:21:45;3.80;;;1.60;;
21254;SDS011;10785;50.674;17.954;2023-05-10T04:24:13;1.77;;;1.35;;
21254;SDS011;10785;50.674;17.954;2023-05-10T04:26:42;1.63;;;1.52;;
21254;SDS011;10785;50.674;17.954;2023-05-10T04:29:11;2.45;;;1.77;;
21254;SDS011;10785;50.674;17.954;2023-05-10T04:31:39;12.27;;;2.47;;
21254;SDS011;10785;50.674;17.954;2023-05-10T04:34:09;2.25;;;1.95;;
21254;SDS011;10785;50.674;17.954;2023-05-10T04:36:38;3.50;;;1.67;;
21254;SDS011;10785;50.674;17.954;2023-05-10T04:39:06;2.72;;;1.83;;
21254;SDS011;10785;50.674;17.954;2023-05-10T04:41:37;3.33;;;1.80;;
21254;SDS011;10785;50.674;17.954;2023-05-10T04:44:06;3.58;;;2.38;;
21254;SDS011;10785;50.674;17.954;2023-05-10T04:46:35;3.15;;;1.80;;
21254;SDS011;10785;50.674;17.954;2023-05-10T04:49:03;3.90;;;2.28;;
21254;SDS011;10785;50.674;17.954;2023-05-10T04:51:33;4.70;;;1.58;;
21254;SDS011;10785;50.674;17.954;2023-05-10T04:54:02;8.70;;;2.67;;
21254;SDS011;10785;50.674;17.954;2023-05-10T04:56:32;7.22;;;2.33;;
21254;SDS011;10785;50.674;17.954;2023-05-10T04:59:02;6.78;;;2.45;;
21254;SDS011;10785;50.674;17.954;2023-05-10T05:01:31;2.78;;;2.03;;
21254;SDS011;10785;50.674;17.954;2023-05-10T05:04:00;2.75;;;1.83;;
21254;SDS011;10785;50.674;17.954;2023-05-10T05:06:28;11.30;;;1.83;;
21254;SDS011;10785;50.674;17.954;2023-05-10T05:08:58;4.32;;;1.98;;
21254;SDS011;10785;50.674;17.954;2023-05-10T05:11:27;3.08;;;1.70;;
21254;SDS011;10785;50.674;17.954;2023-05-10T05:13:56;4.63;;;2.03;;
21254;SDS011;10785;50.674;17.954;2023-05-10T05:16:26;2.83;;;1.70;;
21254;SDS011;10785;50.674;17.954;2023-05-10T05:18:54;2.22;;;1.48;;
21254;SDS011;10785;50.674;17.954;2023-05-10T05:21:23;2.25;;;1.55;;
21254;SDS011;10785;50.674;17.954;2023-05-10T05:23:53;4.57;;;1.83;;
21254;SDS011;10785;50.674;17.954;2023-05-10T05:26:23;1.80;;;1.70;;
21254;SDS011;10785;50.674;17.954;2023-05-10T05:28:52;2.58;;;1.98;;
21254;SDS011;10785;50.674;17.954;2023-05-10T05:31:21;4.25;;;1.67;;
21254;SDS011;10785;50.674;17.954;2023-05-10T05:33:49;4.35;;;1.75;;
21254;SDS011;10785;50.674;17.954;2023-05-10T05:36:18;8.57;;;2.83;;
21254;SDS011;10785;50.674;17.954;2023-05-10T05:38:47;1.75;;;1.20;;
21254;SDS011;10785;50.674;17.954;2023-05-10T05:41:16;3.00;;;1.83;;
21254;SDS011;10785;50.674;17.954;2023-05-10T05:43:46;5.18;;;2.08;;
21254;SDS011;10785;50.674;17.954;2023-05-10T05:46:14;2.50;;;1.58;;
21254;SDS011;10785;50.674;17.954;2023-05-10T05:48:43;4.68;;;2.20;;
21254;SDS011;10785;50.674;17.954;2023-05-10T05:51:11;6.70;;;1.48;;
21254;SDS011;10785;50.674;17.954;2023-05-10T05:53:40;3.30;;;1.55;;
21254;SDS011;10785;50.674;17.954;2023-05-10T05:56:09;4.45;;;1.67;;
21254;SDS011;10785;50.674;17.954;2023-05-10T05:58:38;1.80;;;0.80;;
21254;SDS011;10785;50.674;17.954;2023-05-10T06:01:08;7.47;;;2.53;;
21254;SDS011;10785;50.674;17.954;2023-05-10T06:03:37;6.47;;;1.85;;
21254;SDS011;10785;50.674;17.954;2023-05-10T06:06:06;1.70;;;1.23;;
21254;SDS011;10785;50.674;17.954;2023-05-10T06:08:34;6.53;;;1.88;;
21254;SDS011;10785;50.674;17.954;2023-05-10T06:11:03;3.25;;;1.80;;
21254;SDS011;10785;50.674;17.954;2023-05-10T06:13:32;2.45;;;1.88;;
21254;SDS011;10785;50.674;17.954;2023-05-10T06:16:02;2.03;;;1.05;;
21254;SDS011;10785;50.674;17.954;2023-05-10T06:18:32;2.28;;;1.00;;
21254;SDS011;10785;50.674;17.954;2023-05-10T06:21:01;1.75;;;1.17;;
21254;SDS011;10785;50.674;17.954;2023-05-10T06:23:29;1.38;;;0.80;;
21254;SDS011;10785;50.674;17.954;2023-05-10T06:25:58;2.05;;;1.02;;
21254;SDS011;10785;50.674;17.954;2023-05-10T06:28:27;1.67;;;1.25;;
21254;SDS011;10785;50.674;17.954;2023-05-10T06:30:58;5.47;;;1.98;;
21254;SDS011;10785;50.674;17.954;2023-05-10T06:33:26;1.67;;;1.15;;
21254;SDS011;10785;50.674;17.954;2023-05-10T06:35:57;4.75;;;1.88;;
21254;SDS011;10785;50.674;17.954;2023-05-10T06:38:25;4.43;;;1.33;;
21254;SDS011;10785;50.674;17.954;2023-05-10T06:40:54;1.35;;;0.93;;
21254;SDS011;10785;50.674;17.954;2023-05-10T06:43:23;1.73;;;1.10;;
21254;SDS011;10785;50.674;17.954;2023-05-10T06:45:51;1.92;;;1.02;;
21254;SDS011;10785;50.674;17.954;2023-05-10T06:48:20;0.80;;;0.45;;
21254;SDS011;10785;50.674;17.954;2023-05-10T06:50:49;3.88;;;1.38;;
21254;SDS011;10785;50.674;17.954;2023-05-10T06:53:19;2.75;;;1.27;;
21254;SDS011;10785;50.674;17.954;2023-05-10T06:55:48;1.83;;;0.98;;
21254;SDS011;10785;50.674;17.954;2023-05-10T06:58:17;1.85;;;1.23;;
21254;SDS011;10785;50.674;17.954;2023-05-10T07:00:46;2.13;;;1.40;;
21254;SDS011;10785;50.674;17.954;2023-05-10T07:03:15;7.70;;;1.15;;
21254;SDS011;10785;50.674;17.954;2023-05-10T07:05:43;2.58;;;1.58;;
21254;SDS011;10785;50.674;17.954;2023-05-10T07:08:12;2.45;;;1.13;;
21254;SDS011;10785;50.674;17.954;2023-05-10T07:10:42;0.98;;;0.57;;
21254;SDS011;10785;50.674;17.954;2023-05-10T07:13:11;1.17;;;1.08;;
21254;SDS011;10785;50.674;17.954;2023-05-10T07:15:40;1.25;;;1.10;;
21254;SDS011;10785;50.674;17.954;2023-05-10T07:18:09;0.55;;;0.50;;
21254;SDS011;10785;50.674;17.954;2023-05-10T07:20:37;1.13;;;0.77;;
21254;SDS011;10785;50.674;17.954;2023-05-10T07:23:06;0.73;;;0.55;;
21254;SDS011;10785;50.674;17.954;2023-05-10T07:25:34;1.17;;;0.73;;
21254;SDS011;10785;50.674;17.954;2023-05-10T07:28:05;1.08;;;0.90;;
21254;SDS011;10785;50.674;17.954;2023-05-10T07:30:34;1.27;;;0.68;;
21254;SDS011;10785;50.674;17.954;2023-05-10T07:33:03;2.83;;;0.75;;
21254;SDS011;10785;50.674;17.954;2023-05-10T07:35:31;5.60;;;1.90;;
21254;SDS011;10785;50.674;17.954;2023-05-10T07:38:00;1.17;;;0.75;;
21254;SDS011;10785;50.674;17.954;2023-05-10T07:40:29;1.23;;;0.90;;
21254;SDS011;10785;50.674;17.954;2023-05-10T07:42:57;1.35;;;0.90;;
21254;SDS011;10785;50.674;17.954;2023-05-10T07:45:28;1.38;;;0.60;;
21254;SDS011;10785;50.674;17.954;2023-05-10T07:47:56;0.82;;;0.82;;
21254;SDS011;10785;50.674;17.954;2023-05-10T07:50:25;2.20;;;1.52;;
21254;SDS011;10785;50.674;17.954;2023-05-10T07:52:54;0.75;;;0.65;;
21254;SDS011;10785;50.674;17.954;2023-05-10T07:55:23;0.52;;;0.45;;
21254;SDS011;10785;50.674;17.954;2023-05-10T07:57:51;1.10;;;0.93;;
21254;SDS011;10785;50.674;17.954;2023-05-10T08:00:20;2.03;;;1.27;;
21254;SDS011;10785;50.674;17.954;2023-05-10T08:02:50;0.75;;;0.60;;
21254;SDS011;10785;50.674;17.954;2023-05-10T08:05:23;1.10;;;0.73;;
21254;SDS011;10785;50.674;17.954;2023-05-10T08:07:51;0.55;;;0.47;;
21254;SDS011;10785;50.674;17.954;2023-05-10T08:10:20;1.48;;;1.38;;
21254;SDS011;10785;50.674;17.954;2023-05-10T08:12:48;1.08;;;0.75;;
21254;SDS011;10785;50.674;17.954;2023-05-10T08:15:17;0.30;;;0.30;;
21254;SDS011;10785;50.674;17.954;2023-05-10T08:17:46;0.70;;;0.70;;
21254;SDS011;10785;50.674;17.954;2023-05-10T08:20:16;2.10;;;1.20;;
21254;SDS011;10785;50.674;17.954;2023-05-10T08:22:45;1.85;;;1.27;;
21254;SDS011;10785;50.674;17.954;2023-05-10T08:25:17;0.32;;;0.32;;
21254;SDS011;10785;50.674;17.954;2023-05-10T08:27:46;1.35;;;0.82;;
21254;SDS011;10785;50.674;17.954;2023-05-10T08:30:14;3.20;;;1.33;;
21254;SDS011;10785;50.674;17.954;2023-05-10T08:32:43;0.95;;;0.60;;
21254;SDS011;10785;50.674;17.954;2023-05-10T08:35:12;0.38;;;0.38;;
21254;SDS011;10785;50.674;17.954;2023-05-10T08:37:42;4.05;;;1.40;;
21254;SDS011;10785;50.674;17.954;2023-05-10T08:40:12;0.77;;;0.77;;
21254;SDS011;10785;50.674;17.954;2023-05-10T08:42:43;2.58;;;1.00;;
21254;SDS011;10785;50.674;17.954;2023-05-10T08:45:15;0.65;;;0.65;;
21254;SDS011;10785;50.674;17.954;2023-05-10T08:47:45;0.68;;;0.68;;
21254;SDS011;10785;50.674;17.954;2023-05-10T08:50:15;0.70;;;0.68;;
21254;SDS011;10785;50.674;17.954;2023-05-10T08:52:47;1.20;;;0.80;;
21254;SDS011;10785;50.674;17.954;2023-05-10T08:55:17;10.07;;;3.28;;
21254;SDS011;10785;50.674;17.954;2023-05-10T08:57:46;1.02;;;0.75;;
21254;SDS011;10785;50.674;17.954;2023-05-10T09:00:15;2.00;;;0.90;;
21254;SDS011;10785;50.674;17.954;2023-05-10T09:02:46;2.42;;;0.75;;
21254;SDS011;10785;50.674;17.954;2023-05-10T09:05:17;0.32;;;0.32;;
21254;SDS011;10785;50.674;17.954;2023-05-10T09:07:47;0.77;;;0.60;;
21254;SDS011;10785;50.674;17.954;2023-05-10T09:10:16;0.88;;;0.80;;
21254;SDS011;10785;50.674;17.954;2023-05-10T09:12:45;3.33;;;1.33;;
21254;SDS011;10785;50.674;17.954;2023-05-10T09:15:15;2.25;;;1.27;;
21254;SDS011;10785;50.674;17.954;2023-05-10T09:17:46;2.40;;;1.30;;
21254;SDS011;10785;50.674;17.954;2023-05-10T09:20:17;2.15;;;1.73;;
21254;SDS011;10785;50.674;17.954;2023-05-10T09:22:45;1.17;;;1.13;;
21254;SDS011;10785;50.674;17.954;2023-05-10T09:25:16;0.80;;;0.80;;
21254;SDS011;10785;50.674;17.954;2023-05-10T09:27:46;1.73;;;1.20;;
21254;SDS011;10785;50.674;17.954;2023-05-10T09:30:16;2.13;;;1.38;;
21254;SDS011;10785;50.674;17.954;2023-05-10T09:32:46;1.55;;;1.05;;
21254;SDS011;10785;50.674;17.954;2023-05-10T09:35:17;2.97;;;1.00;;
21254;SDS011;10785;50.674;17.954;2023-05-10T09:37:49;10.50;;;2.28;;
21254;SDS011;10785;50.674;17.954;2023-05-10T09:40:20;1.88;;;0.65;;
21254;SDS011;10785;50.674;17.954;2023-05-10T09:42:51;0.73;;;0.47;;
21254;SDS011;10785;50.674;17.954;2023-05-10T09:45:21;0.80;;;0.80;;
21254;SDS011;10785;50.674;17.954;2023-05-10T09:47:50;0.85;;;0.85;;
21254;SDS011;10785;50.674;17.954;2023-05-10T09:50:19;0.45;;;0.45;;
21254;SDS011;10785;50.674;17.954;2023-05-10T09:52:50;2.55;;;0.77;;
21254;SDS011;10785;50.674;17.954;2023-05-10T09:55:21;3.00;;;1.05;;
21254;SDS011;10785;50.674;17.954;2023-05-10T09:57:58;0.88;;;0.50;;
21254;SDS011;10785;50.674;17.954;2023-05-10T10:00:28;1.17;;;0.70;;
21254;SDS011;10785;50.674;17.954;2023-05-10T10:03:02;0.55;;;0.55;;
21254;SDS011;10785;50.674;17.954;2023-05-10T10:05:32;0.80;;;0.70;;
21254;SDS011;10785;50.674;17.954;2023-05-10T10:08:03;4.07;;;1.85;;
21254;SDS011;10785;50.674;17.954;2023-05-10T10:10:33;1.52;;;0.95;;
21254;SDS011;10785;50.674;17.954;2023-05-10T10:13:02;2.15;;;1.27;;
21254;SDS011;10785;50.674;17.954;2023-05-10T10:15:31;3.42;;;1.40;;
21254;SDS011;10785;50.674;17.954;2023-05-10T10:18:01;6.15;;;1.70;;
21254;SDS011;10785;50.674;17.954;2023-05-10T10:20:31;1.42;;;0.52;;
21254;SDS011;10785;50.674;17.954;2023-05-10T10:23:00;1.10;;;0.77;;
21254;SDS011;10785;50.674;17.954;2023-05-10T10:25:30;0.95;;;0.90;;
21254;SDS011;10785;50.674;17.954;2023-05-10T10:28:02;1.80;;;1.27;;
21254;SDS011;10785;50.674;17.954;2023-05-10T10:30:45;0.85;;;0.82;;
21254;SDS011;10785;50.674;17.954;2023-05-10T10:33:28;2.67;;;0.93;;
21254;SDS011;10785;50.674;17.954;2023-05-10T10:36:04;1.58;;;0.85;;
21254;SDS011;10785;50.674;17.954;2023-05-10T10:38:37;0.80;;;0.80;;
21254;SDS011;10785;50.674;17.954;2023-05-10T10:41:30;0.65;;;0.65;;
21254;SDS011;10785;50.674;17.954;2023-05-10T10:50:04;0.70;;;0.70;;
21254;SDS011;10785;50.674;17.954;2023-05-10T10:52:35;1.17;;;0.98;;
21254;SDS011;10785;50.674;17.954;2023-05-10T10:55:05;7.75;;;0.93;;
21254;SDS011;10785;50.674;17.954;2023-05-10T10:57:44;0.52;;;0.52;;
21254;SDS011;10785;50.674;17.954;2023-05-10T11:00:27;0.98;;;0.63;;
21254;SDS011;10785;50.674;17.954;2023-05-10T11:02:58;1.77;;;1.30;;
21254;SDS011;10785;50.674;17.954;2023-05-10T11:08:10;0.43;;;0.43;;
21254;SDS011;10785;50.674;17.954;2023-05-10T11:10:48;1.75;;;1.17;;
21254;SDS011;10785;50.674;17.954;2023-05-10T11:13:29;5.97;;;1.42;;
21254;SDS011;10785;50.674;17.954;2023-05-10T11:16:09;3.05;;;0.50;;
21254;SDS011;10785;50.674;17.954;2023-05-10T11:18:39;1.00;;;0.60;;
21254;SDS011;10785;50.674;17.954;2023-05-10T11:21:09;0.60;;;0.60;;
21254;SDS011;10785;50.674;17.954;2023-05-10T11:23:48;1.25;;;0.88;;
21254;SDS011;10785;50.674;17.954;2023-05-10T11:26:18;1.38;;;1.15;;
21254;SDS011;10785;50.674;17.954;2023-05-10T11:28:52;0.55;;;0.55;;
21254;SDS011;10785;50.674;17.954;2023-05-10T11:31:23;2.60;;;1.05;;
21254;SDS011;10785;50.674;17.954;2023-05-10T11:33:54;1.05;;;0.60;;
21254;SDS011;10785;50.674;17.954;2023-05-10T11:36:24;0.47;;;0.47;;
21254;SDS011;10785;50.674;17.954;2023-05-10T11:38:54;1.08;;;0.80;;
21254;SDS011;10785;50.674;17.954;2023-05-10T11:41:24;1.35;;;1.25;;
21254;SDS011;10785;50.674;17.954;2023-05-10T11:43:59;3.20;;;0.68;;
21254;SDS011;10785;50.674;17.954;2023-05-10T11:46:28;1.65;;;1.17;;
21254;SDS011;10785;50.674;17.954;2023-05-10T11:48:57;3.75;;;1.70;;
21254;SDS011;10785;50.674;17.954;2023-05-10T11:51:33;0.40;;;0.40;;
21254;SDS011;10785;50.674;17.954;2023-05-10T11:54:05;1.98;;;0.77;;
21254;SDS011;10785;50.674;17.954;2023-05-10T11:56:35;0.47;;;0.38;;
21254;SDS011;10785;50.674;17.954;2023-05-10T11:59:06;1.05;;;0.82;;
21254;SDS011;10785;50.674;17.954;2023-05-10T12:01:35;2.30;;;1.10;;
21254;SDS011;10785;50.674;17.954;2023-05-10T12:04:04;2.05;;;1.50;;
21254;SDS011;10785;50.674;17.954;2023-05-10T12:06:37;2.20;;;0.82;;
21254;SDS011;10785;50.674;17.954;2023-05-10T12:09:08;0.63;;;0.57;;
21254;SDS011;10785;50.674;17.954;2023-05-10T12:11:38;0.65;;;0.65;;
21254;SDS011;10785;50.674;17.954;2023-05-10T12:14:11;6.70;;;1.77;;
21254;SDS011;10785;50.674;17.954;2023-05-10T12:16:42;0.85;;;0.85;;
21254;SDS011;10785;50.674;17.954;2023-05-10T12:19:11;6.28;;;1.52;;
21254;SDS011;10785;50.674;17.954;2023-05-10T12:21:40;0.70;;;0.70;;
21254;SDS011;10785;50.674;17.954;2023-05-10T12:24:09;1.17;;;0.95;;
21254;SDS011;10785;50.674;17.954;2023-05-10T12:26:38;1.13;;;0.80;;
21254;SDS011;10785;50.674;17.954;2023-05-10T12:29:26;0.85;;;0.47;;
21254;SDS011;10785;50.674;17.954;2023-05-10T12:31:59;0.68;;;0.60;;
21254;SDS011;10785;50.674;17.954;2023-05-10T12:34:30;0.93;;;0.50;;
21254;SDS011;10785;50.674;17.954;2023-05-10T12:37:00;20.48;;;1.48;;
21254;SDS011;10785;50.674;17.954;2023-05-10T12:39:38;1.08;;;0.95;;
21254;SDS011;10785;50.674;17.954;2023-05-10T12:42:08;0.20;;;0.20;;
21254;SDS011;10785;50.674;17.954;2023-05-10T12:44:38;0.40;;;0.38;;
21254;SDS011;10785;50.674;17.954;2023-05-10T12:47:07;0.90;;;0.70;;
21254;SDS011;10785;50.674;17.954;2023-05-10T12:49:36;0.82;;;0.63;;
21254;SDS011;10785;50.674;17.954;2023-05-10T12:52:04;1.25;;;0.95;;
21254;SDS011;10785;50.674;17.954;2023-05-10T12:54:34;0.40;;;0.40;;
21254;SDS011;10785;50.674;17.954;2023-05-10T12:57:02;0.73;;;0.73;;
21254;SDS011;10785;50.674;17.954;2023-05-10T12:59:31;1.55;;;0.98;;
21254;SDS011;10785;50.674;17.954;2023-05-10T13:02:05;1.48;;;0.85;;
21254;SDS011;10785;50.674;17.954;2023-05-10T13:04:34;1.60;;;1.23;;
21254;SDS011;10785;50.674;17.954;2023-05-10T13:07:06;0.55;;;0.52;;
21254;SDS011;10785;50.674;17.954;2023-05-10T13:09:35;0.60;;;0.60;;
21254;SDS011;10785;50.674;17.954;2023-05-10T13:12:03;1.63;;;1.52;;
21254;SDS011;10785;50.674;17.954;2023-05-10T13:14:38;2.05;;;1.23;;
21254;SDS011;10785;50.674;17.954;2023-05-10T13:17:10;0.82;;;0.82;;
21254;SDS011;10785;50.674;17.954;2023-05-10T13:19:39;1.10;;;1.00;;
21254;SDS011;10785;50.674;17.954;2023-05-10T13:22:08;0.98;;;0.95;;
21254;SDS011;10785;50.674;17.954;2023-05-10T13:24:37;2.50;;;1.50;;
21254;SDS011;10785;50.674;17.954;2023-05-10T13:27:06;1.52;;;0.70;;
21254;SDS011;10785;50.674;17.954;2023-05-10T13:29:35;4.25;;;1.67;;
21254;SDS011;10785;50.674;17.954;2023-05-10T13:32:04;0.85;;;0.80;;
21254;SDS011;10785;50.674;17.954;2023-05-10T13:34:34;2.95;;;0.98;;
21254;SDS011;10785;50.674;17.954;2023-05-10T13:37:03;1.05;;;0.95;;
21254;SDS011;10785;50.674;17.954;2023-05-10T13:39:32;1.25;;;0.75;;
21254;SDS011;10785;50.674;17.954;2023-05-10T13:42:04;1.65;;;0.70;;
21254;SDS011;10785;50.674;17.954;2023-05-10T13:44:33;0.65;;;0.65;;
21254;SDS011;10785;50.674;17.954;2023-05-10T13:47:03;0.68;;;0.68;;
21254;SDS011;10785;50.674;17.954;2023-05-10T13:49:31;0.90;;;0.88;;
21254;SDS011;10785;50.674;17.954;2023-05-10T13:52:15;19.70;;;0.95;;
21254;SDS011;10785;50.674;17.954;2023-05-10T13:54:44;1.10;;;0.73;;
21254;SDS011;10785;50.674;17.954;2023-05-10T13:57:13;1.27;;;0.77;;
21254;SDS011;10785;50.674;17.954;2023-05-10T13:59:43;1.30;;;0.90;;
21254;SDS011;10785;50.674;17.954;2023-05-10T14:02:12;2.13;;;1.50;;
21254;SDS011;10785;50.674;17.954;2023-05-10T14:04:42;0.35;;;0.35;;
21254;SDS011;10785;50.674;17.954;2023-05-10T14:07:11;1.25;;;0.85;;
21254;SDS011;10785;50.674;17.954;2023-05-10T14:09:41;1.02;;;1.00;;
21254;SDS011;10785;50.674;17.954;2023-05-10T14:12:10;0.43;;;0.43;;
21254;SDS011;10785;50.674;17.954;2023-05-10T14:14:39;0.68;;;0.50;;
21254;SDS011;10785;50.674;17.954;2023-05-10T14:17:08;12.20;;;1.40;;
21254;SDS011;10785;50.674;17.954;2023-05-10T14:19:38;0.88;;;0.88;;
21254;SDS011;10785;50.674;17.954;2023-05-10T14:22:07;0.70;;;0.60;;
21254;SDS011;10785;50.674;17.954;2023-05-10T14:24:36;0.52;;;0.52;;
21254;SDS011;10785;50.674;17.954;2023-05-10T14:27:07;0.30;;;0.30;;
21254;SDS011;10785;50.674;17.954;2023-05-10T14:29:35;1.85;;;1.65;;
21254;SDS011;10785;50.674;17.954;2023-05-10T14:32:04;2.50;;;0.85;;
21254;SDS011;10785;50.674;17.954;2023-05-10T14:34:33;1.75;;;1.63;;
21254;SDS011;10785;50.674;17.954;2023-05-10T14:37:03;0.57;;;0.52;;
21254;SDS011;10785;50.674;17.954;2023-05-10T14:39:32;1.73;;;0.68;;
21254;SDS011;10785;50.674;17.954;2023-05-10T14:42:01;0.82;;;0.82;;
21254;SDS011;10785;50.674;17.954;2023-05-10T14:44:32;1.35;;;1.08;;
21254;SDS011;10785;50.674;17.954;2023-05-10T14:47:01;3.03;;;1.48;;
21254;SDS011;10785;50.674;17.954;2023-05-10T14:49:29;0.75;;;0.75;;
21254;SDS011;10785;50.674;17.954;2023-05-10T14:51:58;0.38;;;0.38;;
21254;SDS011;10785;50.674;17.954;2023-05-10T15:13:50;1.00;;;0.85;;
21254;SDS011;10785;50.674;17.954;2023-05-10T15:16:21;0.73;;;0.73;;
21254;SDS011;10785;50.674;17.954;2023-05-10T15:18:50;0.95;;;0.95;;
21254;SDS011;10785;50.674;17.954;2023-05-10T15:21:19;1.27;;;0.70;;
21254;SDS011;10785;50.674;17.954;2023-05-10T15:26:42;0.77;;;0.52;;
21254;SDS011;10785;50.674;17.954;2023-05-10T15:29:13;1.42;;;0.95;;
21254;SDS011;10785;50.674;17.954;2023-05-10T15:31:46;3.17;;;0.77;;
21254;SDS011;10785;50.674;17.954;2023-05-10T15:34:16;2.45;;;0.60;;
21254;SDS011;10785;50.674;17.954;2023-05-10T15:36:45;1.73;;;1.30;;
21254;SDS011;10785;50.674;17.954;2023-05-10T15:39:14;0.82;;;0.77;;
21254;SDS011;10785;50.674;17.954;2023-05-10T15:41:43;1.23;;;0.82;;
21254;SDS011;10785;50.674;17.954;2023-05-10T15:44:13;1.88;;;1.10;;
21254;SDS011;10785;50.674;17.954;2023-05-10T15:46:45;7.70;;;2.03;;
21254;SDS011;10785;50.674;17.954;2023-05-10T15:49:14;0.55;;;0.55;;
21254;SDS011;10785;50.674;17.954;2023-05-10T15:51:44;1.70;;;1.30;;
21254;SDS011;10785;50.674;17.954;2023-05-10T15:54:13;1.40;;;1.00;;
21254;SDS011;10785;50.674;17.954;2023-05-10T15:56:42;0.50;;;0.50;;
21254;SDS011;10785;50.674;17.954;2023-05-10T15:59:14;2.45;;;1.48;;
21254;SDS011;10785;50.674;17.954;2023-05-10T16:01:43;1.60;;;0.57;;
21254;SDS011;10785;50.674;17.954;2023-05-10T16:04:12;0.93;;;0.93;;
21254;SDS011;10785;50.674;17.954;2023-05-10T16:06:41;1.83;;;0.77;;
21254;SDS011;10785;50.674;17.954;2023-05-10T16:09:10;1.27;;;0.75;;
21254;SDS011;10785;50.674;17.954;2023-05-10T16:11:39;0.60;;;0.35;;
21254;SDS011;10785;50.674;17.954;2023-05-10T16:14:10;1.13;;;0.85;;
21254;SDS011;10785;50.674;17.954;2023-05-10T16:16:40;0.60;;;0.60;;
21254;SDS011;10785;50.674;17.954;2023-05-10T16:19:10;1.10;;;0.45;;
21254;SDS011;10785;50.674;17.954;2023-05-10T16:21:39;0.60;;;0.60;;
21254;SDS011;10785;50.674;17.954;2023-05-10T16:24:08;0.50;;;0.50;;
21254;SDS011;10785;50.674;17.954;2023-05-10T16:26:37;2.53;;;1.05;;
21254;SDS011;10785;50.674;17.954;2023-05-10T16:29:07;0.85;;;0.85;;
21254;SDS011;10785;50.674;17.954;2023-05-10T16:31:38;0.30;;;0.30;;
21254;SDS011;10785;50.674;17.954;2023-05-10T16:34:08;0.70;;;0.70;;
21254;SDS011;10785;50.674;17.954;2023-05-10T16:36:38;0.68;;;0.60;;
21254;SDS011;10785;50.674;17.954;2023-05-10T16:39:06;0.60;;;0.60;;
21254;SDS011;10785;50.674;17.954;2023-05-10T16:41:36;3.55;;;0.50;;
21254;SDS011;10785;50.674;17.954;2023-05-10T16:44:05;2.90;;;0.52;;
21254;SDS011;10785;50.674;17.954;2023-05-10T16:46:35;0.50;;;0.50;;
21254;SDS011;10785;50.674;17.954;2023-05-10T16:49:05;0.85;;;0.32;;